sensor_id;sensor_type;location;lat;lon;timestamp;P1;durP1;ratioP1;P2;durP2;ratioP2
59786;SDS011;45672;51.612;5.536;2023-07-13T00:01:28;10.27;;;2.00;;
59786;SDS011;45672;51.612;5.536;2023-07-13T00:03:54;6.28;;;1.65;;
59786;SDS011;45672;51.612;5.536;2023-07-13T00:06:21;7.90;;;2.05;;
59786;SDS011;45672;51.612;5.536;2023-07-13T00:08:46;7.72;;;1.90;;
59786;SDS011;45672;51.612;5.536;2023-07-13T00:11:13;6.20;;;1.75;;
59786;SDS011;45672;51.612;5.536;2023-07-13T00:13:40;5.13;;;2.13;;
59786;SDS011;45672;51.612;5.536;2023-07-13T00:16:06;8.77;;;2.10;;
59786;SDS011;45672;51.612;5.536;2023-07-13T00:18:32;4.85;;;1.77;;
59786;SDS011;45672;51.612;5.536;2023-07-13T00:20:58;9.27;;;2.38;;
59786;SDS011;45672;51.612;5.536;2023-07-13T00:23:34;6.18;;;1.92;;
59786;SDS011;45672;51.612;5.536;2023-07-13T00:26:01;10.23;;;2.03;;
59786;SDS011;45672;51.612;5.536;2023-07-13T00:28:28;7.63;;;2.00;;
59786;SDS011;45672;51.612;5.536;2023-07-13T00:30:53;5.85;;;2.10;;
59786;SDS011;45672;51.612;5.536;2023-07-13T00:33:19;7.80;;;2.40;;
59786;SDS011;45672;51.612;5.536;2023-07-13T00:35:44;6.18;;;2.28;;
59786;SDS011;45672;51.612;5.536;2023-07-13T00:38:10;6.43;;;2.13;;
59786;SDS011;45672;51.612;5.536;2023-07-13T00:40:35;10.75;;;2.40;;
59786;SDS011;45672;51.612;5.536;2023-07-13T00:43:01;7.28;;;2.03;;
59786;SDS011;45672;51.612;5.536;2023-07-13T00:47:52;5.78;;;2.10;;
59786;SDS011;45672;51.612;5.536;2023-07-13T00:50:17;5.68;;;2.22;;
59786;SDS011;45672;51.612;5.536;2023-07-13T00:52:46;6.40;;;2.40;;
59786;SDS011;45672;51.612;5.536;2023-07-13T00:55:15;10.60;;;2.05;;
59786;SDS011;45672;51.612;5.536;2023-07-13T00:57:43;4.82;;;2.20;;
59786;SDS011;45672;51.612;5.536;2023-07-13T01:00:09;8.52;;;2.50;;
59786;SDS011;45672;51.612;5.536;2023-07-13T01:02:37;9.80;;;2.22;;
59786;SDS011;45672;51.612;5.536;2023-07-13T01:05:15;5.68;;;2.00;;
59786;SDS011;45672;51.612;5.536;2023-07-13T01:07:43;5.03;;;1.85;;
59786;SDS011;45672;51.612;5.536;2023-07-13T01:10:10;7.10;;;2.35;;
59786;SDS011;45672;51.612;5.536;2023-07-13T01:12:36;7.03;;;2.60;;
59786;SDS011;45672;51.612;5.536;2023-07-13T01:15:02;4.00;;;2.28;;
59786;SDS011;45672;51.612;5.536;2023-07-13T01:17:29;7.47;;;2.47;;
59786;SDS011;45672;51.612;5.536;2023-07-13T01:19:56;7.07;;;2.20;;
59786;SDS011;45672;51.612;5.536;2023-07-13T01:22:22;6.75;;;2.05;;
59786;SDS011;45672;51.612;5.536;2023-07-13T01:24:51;6.47;;;2.40;;
59786;SDS011;45672;51.612;5.536;2023-07-13T01:27:21;4.63;;;2.35;;
59786;SDS011;45672;51.612;5.536;2023-07-13T01:29:50;6.38;;;2.30;;
59786;SDS011;45672;51.612;5.536;2023-07-13T01:32:18;10.18;;;2.55;;
59786;SDS011;45672;51.612;5.536;2023-07-13T01:34:47;9.15;;;2.50;;
59786;SDS011;45672;51.612;5.536;2023-07-13T01:37:13;9.60;;;2.88;;
59786;SDS011;45672;51.612;5.536;2023-07-13T01:39:39;8.13;;;2.60;;
59786;SDS011;45672;51.612;5.536;2023-07-13T01:42:04;8.35;;;2.25;;
59786;SDS011;45672;51.612;5.536;2023-07-13T01:44:30;6.72;;;2.40;;
59786;SDS011;45672;51.612;5.536;2023-07-13T01:46:56;5.15;;;2.30;;
59786;SDS011;45672;51.612;5.536;2023-07-13T01:49:21;7.03;;;2.40;;
59786;SDS011;45672;51.612;5.536;2023-07-13T01:51:47;10.35;;;2.38;;
59786;SDS011;45672;51.612;5.536;2023-07-13T01:54:12;5.72;;;2.40;;
59786;SDS011;45672;51.612;5.536;2023-07-13T01:56:38;9.40;;;2.45;;
59786;SDS011;45672;51.612;5.536;2023-07-13T01:59:04;4.20;;;2.33;;
59786;SDS011;45672;51.612;5.536;2023-07-13T02:01:30;9.80;;;2.75;;
59786;SDS011;45672;51.612;5.536;2023-07-13T02:03:55;8.70;;;2.45;;
59786;SDS011;45672;51.612;5.536;2023-07-13T02:06:21;10.45;;;2.85;;
59786;SDS011;45672;51.612;5.536;2023-07-13T02:08:46;5.18;;;2.55;;
59786;SDS011;45672;51.612;5.536;2023-07-13T02:11:12;8.30;;;2.53;;
59786;SDS011;45672;51.612;5.536;2023-07-13T02:13:37;8.98;;;2.70;;
59786;SDS011;45672;51.612;5.536;2023-07-13T02:16:03;6.55;;;2.72;;
59786;SDS011;45672;51.612;5.536;2023-07-13T02:18:28;5.35;;;2.55;;
59786;SDS011;45672;51.612;5.536;2023-07-13T02:20:54;11.27;;;2.88;;
59786;SDS011;45672;51.612;5.536;2023-07-13T02:23:19;10.18;;;3.15;;
59786;SDS011;45672;51.612;5.536;2023-07-13T02:25:45;7.68;;;2.13;;
59786;SDS011;45672;51.612;5.536;2023-07-13T02:28:10;6.57;;;2.80;;
59786;SDS011;45672;51.612;5.536;2023-07-13T02:30:36;6.65;;;3.00;;
59786;SDS011;45672;51.612;5.536;2023-07-13T02:33:03;7.13;;;2.70;;
59786;SDS011;45672;51.612;5.536;2023-07-13T02:35:29;10.35;;;3.03;;
59786;SDS011;45672;51.612;5.536;2023-07-13T02:37:54;10.23;;;2.85;;
59786;SDS011;45672;51.612;5.536;2023-07-13T02:40:19;7.22;;;2.97;;
59786;SDS011;45672;51.612;5.536;2023-07-13T02:42:45;8.07;;;3.00;;
59786;SDS011;45672;51.612;5.536;2023-07-13T02:45:10;7.57;;;2.90;;
59786;SDS011;45672;51.612;5.536;2023-07-13T02:47:37;8.63;;;3.25;;
59786;SDS011;45672;51.612;5.536;2023-07-13T02:50:03;15.20;;;3.63;;
59786;SDS011;45672;51.612;5.536;2023-07-13T02:52:29;11.50;;;3.28;;
59786;SDS011;45672;51.612;5.536;2023-07-13T02:54:54;8.07;;;3.13;;
59786;SDS011;45672;51.612;5.536;2023-07-13T02:57:19;10.23;;;3.22;;
59786;SDS011;45672;51.612;5.536;2023-07-13T02:59:45;9.82;;;3.30;;
59786;SDS011;45672;51.612;5.536;2023-07-13T03:02:11;12.13;;;3.33;;
59786;SDS011;45672;51.612;5.536;2023-07-13T03:04:36;8.85;;;3.50;;
59786;SDS011;45672;51.612;5.536;2023-07-13T03:07:02;12.93;;;4.05;;
59786;SDS011;45672;51.612;5.536;2023-07-13T03:09:28;12.57;;;3.55;;
59786;SDS011;45672;51.612;5.536;2023-07-13T03:11:54;8.73;;;3.35;;
59786;SDS011;45672;51.612;5.536;2023-07-13T03:14:20;8.23;;;2.95;;
59786;SDS011;45672;51.612;5.536;2023-07-13T03:16:47;13.95;;;3.30;;
59786;SDS011;45672;51.612;5.536;2023-07-13T03:19:12;8.20;;;2.80;;
59786;SDS011;45672;51.612;5.536;2023-07-13T03:21:37;7.55;;;2.90;;
59786;SDS011;45672;51.612;5.536;2023-07-13T03:24:03;6.88;;;2.55;;
59786;SDS011;45672;51.612;5.536;2023-07-13T03:26:28;7.68;;;2.50;;
59786;SDS011;45672;51.612;5.536;2023-07-13T03:28:54;9.52;;;3.42;;
59786;SDS011;45672;51.612;5.536;2023-07-13T03:31:21;6.93;;;2.67;;
59786;SDS011;45672;51.612;5.536;2023-07-13T03:33:48;13.25;;;2.97;;
59786;SDS011;45672;51.612;5.536;2023-07-13T03:36:18;8.25;;;2.80;;
59786;SDS011;45672;51.612;5.536;2023-07-13T03:38:55;6.77;;;2.70;;
59786;SDS011;45672;51.612;5.536;2023-07-13T03:41:23;13.82;;;3.25;;
59786;SDS011;45672;51.612;5.536;2023-07-13T03:43:49;9.27;;;2.92;;
59786;SDS011;45672;51.612;5.536;2023-07-13T03:46:15;5.20;;;2.80;;
59786;SDS011;45672;51.612;5.536;2023-07-13T03:48:42;13.18;;;3.28;;
59786;SDS011;45672;51.612;5.536;2023-07-13T03:51:10;11.65;;;3.33;;
59786;SDS011;45672;51.612;5.536;2023-07-13T03:53:39;8.35;;;3.50;;
59786;SDS011;45672;51.612;5.536;2023-07-13T03:56:06;12.55;;;3.05;;
59786;SDS011;45672;51.612;5.536;2023-07-13T03:58:34;13.98;;;3.17;;
59786;SDS011;45672;51.612;5.536;2023-07-13T04:01:02;8.32;;;3.10;;
59786;SDS011;45672;51.612;5.536;2023-07-13T04:03:29;18.23;;;3.58;;
59786;SDS011;45672;51.612;5.536;2023-07-13T04:05:57;6.65;;;2.67;;
59786;SDS011;45672;51.612;5.536;2023-07-13T04:08:27;13.88;;;3.45;;
59786;SDS011;45672;51.612;5.536;2023-07-13T04:10:53;8.48;;;3.22;;
59786;SDS011;45672;51.612;5.536;2023-07-13T04:13:19;11.13;;;3.10;;
59786;SDS011;45672;51.612;5.536;2023-07-13T04:15:44;8.63;;;3.10;;
59786;SDS011;45672;51.612;5.536;2023-07-13T04:18:10;8.32;;;3.10;;
59786;SDS011;45672;51.612;5.536;2023-07-13T04:20:35;10.63;;;3.40;;
59786;SDS011;45672;51.612;5.536;2023-07-13T04:23:01;12.00;;;3.25;;
59786;SDS011;45672;51.612;5.536;2023-07-13T04:25:26;11.75;;;3.30;;
59786;SDS011;45672;51.612;5.536;2023-07-13T04:27:52;9.73;;;3.13;;
59786;SDS011;45672;51.612;5.536;2023-07-13T04:30:18;9.43;;;3.83;;
59786;SDS011;45672;51.612;5.536;2023-07-13T04:32:44;9.93;;;3.40;;
59786;SDS011;45672;51.612;5.536;2023-07-13T04:35:10;10.30;;;3.75;;
59786;SDS011;45672;51.612;5.536;2023-07-13T04:37:35;11.50;;;3.70;;
59786;SDS011;45672;51.612;5.536;2023-07-13T04:40:01;11.30;;;3.65;;
59786;SDS011;45672;51.612;5.536;2023-07-13T04:42:27;10.15;;;3.88;;
59786;SDS011;45672;51.612;5.536;2023-07-13T04:44:52;11.30;;;3.78;;
59786;SDS011;45672;51.612;5.536;2023-07-13T04:47:18;13.00;;;3.90;;
59786;SDS011;45672;51.612;5.536;2023-07-13T04:49:44;12.95;;;4.88;;
59786;SDS011;45672;51.612;5.536;2023-07-13T04:52:10;16.52;;;4.97;;
59786;SDS011;45672;51.612;5.536;2023-07-13T04:54:36;14.07;;;5.20;;
59786;SDS011;45672;51.612;5.536;2023-07-13T04:57:02;17.35;;;5.28;;
59786;SDS011;45672;51.612;5.536;2023-07-13T04:59:29;17.83;;;5.93;;
59786;SDS011;45672;51.612;5.536;2023-07-13T05:01:55;18.17;;;5.80;;
59786;SDS011;45672;51.612;5.536;2023-07-13T05:04:20;21.77;;;7.63;;
59786;SDS011;45672;51.612;5.536;2023-07-13T05:06:45;23.58;;;7.82;;
59786;SDS011;45672;51.612;5.536;2023-07-13T05:09:11;21.67;;;7.30;;
59786;SDS011;45672;51.612;5.536;2023-07-13T05:11:37;24.40;;;7.95;;
59786;SDS011;45672;51.612;5.536;2023-07-13T05:14:03;19.92;;;7.60;;
59786;SDS011;45672;51.612;5.536;2023-07-13T05:16:28;20.95;;;8.15;;
59786;SDS011;45672;51.612;5.536;2023-07-13T05:18:53;20.38;;;8.05;;
59786;SDS011;45672;51.612;5.536;2023-07-13T05:21:19;23.73;;;8.40;;
59786;SDS011;45672;51.612;5.536;2023-07-13T05:23:44;24.05;;;9.40;;
59786;SDS011;45672;51.612;5.536;2023-07-13T05:26:10;28.20;;;10.18;;
59786;SDS011;45672;51.612;5.536;2023-07-13T05:28:36;27.17;;;9.75;;
59786;SDS011;45672;51.612;5.536;2023-07-13T05:31:03;26.50;;;10.10;;
59786;SDS011;45672;51.612;5.536;2023-07-13T05:33:29;28.08;;;11.18;;
59786;SDS011;45672;51.612;5.536;2023-07-13T05:35:54;21.70;;;10.60;;
59786;SDS011;45672;51.612;5.536;2023-07-13T05:38:20;20.50;;;10.23;;
59786;SDS011;45672;51.612;5.536;2023-07-13T05:40:46;32.05;;;11.10;;
59786;SDS011;45672;51.612;5.536;2023-07-13T05:43:12;26.80;;;11.02;;
59786;SDS011;45672;51.612;5.536;2023-07-13T05:45:37;24.20;;;10.88;;
59786;SDS011;45672;51.612;5.536;2023-07-13T05:48:03;29.10;;;10.50;;
59786;SDS011;45672;51.612;5.536;2023-07-13T05:50:28;29.65;;;11.43;;
59786;SDS011;45672;51.612;5.536;2023-07-13T05:52:54;22.63;;;11.27;;
59786;SDS011;45672;51.612;5.536;2023-07-13T05:55:20;30.92;;;11.20;;
59786;SDS011;45672;51.612;5.536;2023-07-13T05:57:46;37.65;;;12.88;;
59786;SDS011;45672;51.612;5.536;2023-07-13T06:00:12;24.13;;;10.77;;
59786;SDS011;45672;51.612;5.536;2023-07-13T06:02:37;31.33;;;11.63;;
59786;SDS011;45672;51.612;5.536;2023-07-13T06:05:03;29.08;;;11.10;;
59786;SDS011;45672;51.612;5.536;2023-07-13T06:07:29;34.00;;;11.85;;
59786;SDS011;45672;51.612;5.536;2023-07-13T06:09:54;28.85;;;12.07;;
59786;SDS011;45672;51.612;5.536;2023-07-13T06:12:19;23.08;;;11.05;;
59786;SDS011;45672;51.612;5.536;2023-07-13T06:14:45;31.95;;;12.52;;
59786;SDS011;45672;51.612;5.536;2023-07-13T06:17:10;37.33;;;11.25;;
59786;SDS011;45672;51.612;5.536;2023-07-13T06:19:36;26.08;;;11.63;;
59786;SDS011;45672;51.612;5.536;2023-07-13T06:22:01;26.83;;;11.20;;
59786;SDS011;45672;51.612;5.536;2023-07-13T06:24:26;28.90;;;11.15;;
59786;SDS011;45672;51.612;5.536;2023-07-13T06:26:52;31.38;;;12.27;;
59786;SDS011;45672;51.612;5.536;2023-07-13T06:29:17;26.63;;;11.07;;
59786;SDS011;45672;51.612;5.536;2023-07-13T06:31:44;22.30;;;11.18;;
59786;SDS011;45672;51.612;5.536;2023-07-13T06:34:09;24.95;;;11.13;;
59786;SDS011;45672;51.612;5.536;2023-07-13T06:36:35;30.58;;;11.80;;
59786;SDS011;45672;51.612;5.536;2023-07-13T06:39:01;30.50;;;11.43;;
59786;SDS011;45672;51.612;5.536;2023-07-13T06:41:27;24.50;;;11.23;;
59786;SDS011;45672;51.612;5.536;2023-07-13T06:43:53;22.15;;;10.75;;
59786;SDS011;45672;51.612;5.536;2023-07-13T06:46:22;32.40;;;12.20;;
59786;SDS011;45672;51.612;5.536;2023-07-13T06:48:48;18.75;;;11.07;;
59786;SDS011;45672;51.612;5.536;2023-07-13T06:51:14;39.53;;;12.20;;
59786;SDS011;45672;51.612;5.536;2023-07-13T06:53:39;29.48;;;11.85;;
59786;SDS011;45672;51.612;5.536;2023-07-13T06:56:05;30.55;;;11.32;;
59786;SDS011;45672;51.612;5.536;2023-07-13T06:58:30;25.42;;;10.88;;
59786;SDS011;45672;51.612;5.536;2023-07-13T07:00:56;28.35;;;11.30;;
59786;SDS011;45672;51.612;5.536;2023-07-13T07:03:22;31.92;;;11.23;;
59786;SDS011;45672;51.612;5.536;2023-07-13T07:05:47;28.13;;;11.52;;
59786;SDS011;45672;51.612;5.536;2023-07-13T07:08:12;25.50;;;11.45;;
59786;SDS011;45672;51.612;5.536;2023-07-13T07:10:38;25.58;;;10.60;;
59786;SDS011;45672;51.612;5.536;2023-07-13T07:13:05;27.10;;;10.43;;
59786;SDS011;45672;51.612;5.536;2023-07-13T07:15:30;23.80;;;9.88;;
59786;SDS011;45672;51.612;5.536;2023-07-13T07:17:56;26.63;;;10.07;;
59786;SDS011;45672;51.612;5.536;2023-07-13T07:20:21;29.40;;;10.90;;
59786;SDS011;45672;51.612;5.536;2023-07-13T07:22:47;31.15;;;10.65;;
59786;SDS011;45672;51.612;5.536;2023-07-13T07:25:13;23.67;;;10.05;;
59786;SDS011;45672;51.612;5.536;2023-07-13T07:27:39;25.17;;;10.18;;
59786;SDS011;45672;51.612;5.536;2023-07-13T07:30:04;27.25;;;10.20;;
59786;SDS011;45672;51.612;5.536;2023-07-13T07:32:30;27.30;;;10.13;;
59786;SDS011;45672;51.612;5.536;2023-07-13T07:34:57;24.30;;;10.50;;
59786;SDS011;45672;51.612;5.536;2023-07-13T07:37:23;22.67;;;9.18;;
59786;SDS011;45672;51.612;5.536;2023-07-13T07:39:48;23.65;;;9.05;;
59786;SDS011;45672;51.612;5.536;2023-07-13T07:42:14;22.90;;;8.88;;
59786;SDS011;45672;51.612;5.536;2023-07-13T07:44:40;18.90;;;8.52;;
59786;SDS011;45672;51.612;5.536;2023-07-13T07:47:06;17.33;;;8.95;;
59786;SDS011;45672;51.612;5.536;2023-07-13T07:49:31;22.75;;;8.77;;
59786;SDS011;45672;51.612;5.536;2023-07-13T07:51:57;18.65;;;8.23;;
59786;SDS011;45672;51.612;5.536;2023-07-13T07:54:22;22.17;;;8.70;;
59786;SDS011;45672;51.612;5.536;2023-07-13T07:56:48;15.07;;;7.93;;
59786;SDS011;45672;51.612;5.536;2023-07-13T07:59:13;17.75;;;8.23;;
59786;SDS011;45672;51.612;5.536;2023-07-13T08:01:39;23.25;;;8.00;;
59786;SDS011;45672;51.612;5.536;2023-07-13T08:04:04;19.30;;;7.05;;
59786;SDS011;45672;51.612;5.536;2023-07-13T08:06:31;16.00;;;6.90;;
59786;SDS011;45672;51.612;5.536;2023-07-13T08:08:58;22.92;;;7.10;;
59786;SDS011;45672;51.612;5.536;2023-07-13T08:11:24;18.75;;;6.68;;
59786;SDS011;45672;51.612;5.536;2023-07-13T08:13:50;17.60;;;6.68;;
59786;SDS011;45672;51.612;5.536;2023-07-13T08:16:16;16.02;;;6.43;;
59786;SDS011;45672;51.612;5.536;2023-07-13T08:18:41;12.77;;;6.28;;
59786;SDS011;45672;51.612;5.536;2023-07-13T08:21:07;15.27;;;6.10;;
59786;SDS011;45672;51.612;5.536;2023-07-13T08:23:33;14.63;;;6.18;;
59786;SDS011;45672;51.612;5.536;2023-07-13T08:25:59;15.40;;;5.70;;
59786;SDS011;45672;51.612;5.536;2023-07-13T08:28:26;11.38;;;4.85;;
59786;SDS011;45672;51.612;5.536;2023-07-13T08:30:52;13.23;;;5.00;;
59786;SDS011;45672;51.612;5.536;2023-07-13T08:33:18;9.48;;;4.35;;
59786;SDS011;45672;51.612;5.536;2023-07-13T08:35:48;13.93;;;4.25;;
59786;SDS011;45672;51.612;5.536;2023-07-13T08:38:15;12.60;;;4.15;;
59786;SDS011;45672;51.612;5.536;2023-07-13T08:40:41;9.43;;;3.80;;
59786;SDS011;45672;51.612;5.536;2023-07-13T08:43:09;10.00;;;3.95;;
59786;SDS011;45672;51.612;5.536;2023-07-13T08:45:43;12.05;;;4.13;;
59786;SDS011;45672;51.612;5.536;2023-07-13T08:48:24;11.07;;;4.53;;
59786;SDS011;45672;51.612;5.536;2023-07-13T08:53:24;9.55;;;3.83;;
59786;SDS011;45672;51.612;5.536;2023-07-13T08:55:57;9.95;;;3.53;;
59786;SDS011;45672;51.612;5.536;2023-07-13T08:58:24;10.10;;;3.90;;
59786;SDS011;45672;51.612;5.536;2023-07-13T09:03:23;16.48;;;4.38;;
59786;SDS011;45672;51.612;5.536;2023-07-13T09:05:54;10.57;;;3.90;;
59786;SDS011;45672;51.612;5.536;2023-07-13T09:17:04;5.70;;;3.53;;
59786;SDS011;45672;51.612;5.536;2023-07-13T09:19:36;10.93;;;4.38;;
59786;SDS011;45672;51.612;5.536;2023-07-13T09:22:03;9.10;;;3.75;;
59786;SDS011;45672;51.612;5.536;2023-07-13T09:27:18;14.43;;;3.97;;
59786;SDS011;45672;51.612;5.536;2023-07-13T09:32:45;10.55;;;3.97;;
59786;SDS011;45672;51.612;5.536;2023-07-13T09:35:16;11.20;;;3.83;;
59786;SDS011;45672;51.612;5.536;2023-07-13T09:37:45;9.52;;;3.90;;
59786;SDS011;45672;51.612;5.536;2023-07-13T09:40:14;7.72;;;3.70;;
59786;SDS011;45672;51.612;5.536;2023-07-13T09:42:51;9.43;;;3.75;;
59786;SDS011;45672;51.612;5.536;2023-07-13T09:45:28;12.63;;;4.20;;
59786;SDS011;45672;51.612;5.536;2023-07-13T09:48:11;7.28;;;3.60;;
59786;SDS011;45672;51.612;5.536;2023-07-13T09:50:38;12.20;;;3.70;;
59786;SDS011;45672;51.612;5.536;2023-07-13T09:53:04;8.82;;;3.63;;
59786;SDS011;45672;51.612;5.536;2023-07-13T09:55:40;7.50;;;3.70;;
59786;SDS011;45672;51.612;5.536;2023-07-13T09:58:14;8.73;;;3.20;;
59786;SDS011;45672;51.612;5.536;2023-07-13T10:00:40;20.75;;;3.60;;
59786;SDS011;45672;51.612;5.536;2023-07-13T10:03:18;4.80;;;2.95;;
59786;SDS011;45672;51.612;5.536;2023-07-13T10:05:47;6.53;;;2.92;;
59786;SDS011;45672;51.612;5.536;2023-07-13T10:08:22;9.13;;;2.92;;
59786;SDS011;45672;51.612;5.536;2023-07-13T10:10:52;10.00;;;2.83;;
59786;SDS011;45672;51.612;5.536;2023-07-13T10:13:26;6.32;;;2.72;;
59786;SDS011;45672;51.612;5.536;2023-07-13T10:15:55;6.68;;;3.10;;
59786;SDS011;45672;51.612;5.536;2023-07-13T10:18:22;9.35;;;3.60;;
59786;SDS011;45672;51.612;5.536;2023-07-13T10:20:50;8.13;;;3.33;;
59786;SDS011;45672;51.612;5.536;2023-07-13T10:23:24;8.15;;;3.50;;
59786;SDS011;45672;51.612;5.536;2023-07-13T10:25:56;5.93;;;3.10;;
59786;SDS011;45672;51.612;5.536;2023-07-13T10:28:29;9.63;;;3.20;;
59786;SDS011;45672;51.612;5.536;2023-07-13T10:30:58;9.18;;;3.10;;
59786;SDS011;45672;51.612;5.536;2023-07-13T10:33:26;6.72;;;3.10;;
59786;SDS011;45672;51.612;5.536;2023-07-13T10:35:53;9.98;;;3.15;;
59786;SDS011;45672;51.612;5.536;2023-07-13T10:38:24;6.43;;;2.90;;
59786;SDS011;45672;51.612;5.536;2023-07-13T10:40:55;12.50;;;3.05;;
59786;SDS011;45672;51.612;5.536;2023-07-13T10:43:37;7.45;;;3.03;;
59786;SDS011;45672;51.612;5.536;2023-07-13T10:46:10;10.75;;;3.40;;
59786;SDS011;45672;51.612;5.536;2023-07-13T10:48:38;11.80;;;2.85;;
59786;SDS011;45672;51.612;5.536;2023-07-13T10:51:06;10.40;;;2.97;;
59786;SDS011;45672;51.612;5.536;2023-07-13T10:53:33;8.10;;;3.38;;
59786;SDS011;45672;51.612;5.536;2023-07-13T10:59:00;5.60;;;3.30;;
59786;SDS011;45672;51.612;5.536;2023-07-13T11:01:39;4.50;;;3.10;;
59786;SDS011;45672;51.612;5.536;2023-07-13T11:04:08;8.88;;;2.88;;
59786;SDS011;45672;51.612;5.536;2023-07-13T11:06:38;6.03;;;3.15;;
59786;SDS011;45672;51.612;5.536;2023-07-13T11:11:43;6.97;;;3.17;;
59786;SDS011;45672;51.612;5.536;2023-07-13T11:22:45;7.03;;;3.55;;
59786;SDS011;45672;51.612;5.536;2023-07-13T11:25:32;8.05;;;3.88;;
59786;SDS011;45672;51.612;5.536;2023-07-13T11:30:37;8.10;;;3.60;;
59786;SDS011;45672;51.612;5.536;2023-07-13T11:36:04;9.77;;;4.60;;
59786;SDS011;45672;51.612;5.536;2023-07-13T11:38:33;10.13;;;4.22;;
59786;SDS011;45672;51.612;5.536;2023-07-13T11:41:05;8.20;;;4.10;;
59786;SDS011;45672;51.612;5.536;2023-07-13T11:43:40;14.02;;;4.47;;
59786;SDS011;45672;51.612;5.536;2023-07-13T11:46:19;8.10;;;4.18;;
59786;SDS011;45672;51.612;5.536;2023-07-13T11:48:46;12.05;;;4.80;;
59786;SDS011;45672;51.612;5.536;2023-07-13T11:51:16;10.73;;;4.93;;
59786;SDS011;45672;51.612;5.536;2023-07-13T11:53:49;7.82;;;4.32;;
59786;SDS011;45672;51.612;5.536;2023-07-13T11:56:16;12.13;;;3.92;;
59786;SDS011;45672;51.612;5.536;2023-07-13T11:58:42;7.93;;;3.50;;
59786;SDS011;45672;51.612;5.536;2023-07-13T12:01:24;11.20;;;3.63;;
59786;SDS011;45672;51.612;5.536;2023-07-13T12:03:57;7.10;;;3.78;;
59786;SDS011;45672;51.612;5.536;2023-07-13T12:06:27;8.73;;;3.65;;
59786;SDS011;45672;51.612;5.536;2023-07-13T12:09:02;15.43;;;4.47;;
59786;SDS011;45672;51.612;5.536;2023-07-13T12:11:34;8.27;;;4.10;;
59786;SDS011;45672;51.612;5.536;2023-07-13T12:14:02;9.88;;;3.53;;
59786;SDS011;45672;51.612;5.536;2023-07-13T12:16:29;5.45;;;3.13;;
59786;SDS011;45672;51.612;5.536;2023-07-13T12:18:57;6.32;;;3.25;;
59786;SDS011;45672;51.612;5.536;2023-07-13T12:21:31;8.70;;;3.30;;
59786;SDS011;45672;51.612;5.536;2023-07-13T12:23:59;11.48;;;3.38;;
59786;SDS011;45672;51.612;5.536;2023-07-13T12:26:27;8.23;;;3.15;;
59786;SDS011;45672;51.612;5.536;2023-07-13T12:28:54;6.50;;;3.10;;
59786;SDS011;45672;51.612;5.536;2023-07-13T12:36:37;6.93;;;2.50;;
59786;SDS011;45672;51.612;5.536;2023-07-13T12:39:15;5.05;;;2.25;;
59786;SDS011;45672;51.612;5.536;2023-07-13T12:41:44;6.63;;;1.80;;
59786;SDS011;45672;51.612;5.536;2023-07-13T12:44:14;8.38;;;2.20;;
59786;SDS011;45672;51.612;5.536;2023-07-13T12:46:55;4.43;;;1.70;;
59786;SDS011;45672;51.612;5.536;2023-07-13T12:49:29;5.82;;;2.03;;
59786;SDS011;45672;51.612;5.536;2023-07-13T12:52:00;6.18;;;1.98;;
59786;SDS011;45672;51.612;5.536;2023-07-13T12:54:27;3.40;;;2.00;;
59786;SDS011;45672;51.612;5.536;2023-07-13T12:56:54;4.40;;;2.22;;
59786;SDS011;45672;51.612;5.536;2023-07-13T12:59:23;3.03;;;1.90;;
59786;SDS011;45672;51.612;5.536;2023-07-13T13:01:51;8.10;;;2.75;;
59786;SDS011;45672;51.612;5.536;2023-07-13T13:04:18;6.47;;;2.00;;
59786;SDS011;45672;51.612;5.536;2023-07-13T13:06:46;4.95;;;2.00;;
59786;SDS011;45672;51.612;5.536;2023-07-13T13:09:14;5.75;;;2.20;;
59786;SDS011;45672;51.612;5.536;2023-07-13T13:11:40;3.53;;;2.40;;
59786;SDS011;45672;51.612;5.536;2023-07-13T13:14:06;4.55;;;2.28;;
59786;SDS011;45672;51.612;5.536;2023-07-13T13:16:33;5.22;;;2.08;;
59786;SDS011;45672;51.612;5.536;2023-07-13T13:19:09;8.35;;;1.95;;
59786;SDS011;45672;51.612;5.536;2023-07-13T13:21:36;4.50;;;1.98;;
59786;SDS011;45672;51.612;5.536;2023-07-13T13:24:02;5.80;;;2.38;;
59786;SDS011;45672;51.612;5.536;2023-07-13T13:26:29;10.70;;;2.53;;
59786;SDS011;45672;51.612;5.536;2023-07-13T13:28:55;4.88;;;2.35;;
59786;SDS011;45672;51.612;5.536;2023-07-13T13:31:21;4.88;;;2.15;;
59786;SDS011;45672;51.612;5.536;2023-07-13T13:33:47;9.25;;;2.30;;
59786;SDS011;45672;51.612;5.536;2023-07-13T13:38:46;6.32;;;2.42;;
59786;SDS011;45672;51.612;5.536;2023-07-13T13:41:13;10.20;;;2.67;;
59786;SDS011;45672;51.612;5.536;2023-07-13T13:43:39;6.50;;;2.35;;
59786;SDS011;45672;51.612;5.536;2023-07-13T13:46:14;5.07;;;2.08;;
59786;SDS011;45672;51.612;5.536;2023-07-13T13:48:42;4.53;;;2.50;;
59786;SDS011;45672;51.612;5.536;2023-07-13T13:51:18;4.72;;;2.58;;
59786;SDS011;45672;51.612;5.536;2023-07-13T13:53:45;3.03;;;2.28;;
59786;SDS011;45672;51.612;5.536;2023-07-13T13:56:12;3.30;;;2.10;;
59786;SDS011;45672;51.612;5.536;2023-07-13T13:58:38;3.97;;;2.03;;
59786;SDS011;45672;51.612;5.536;2023-07-13T14:01:03;3.72;;;2.10;;
59786;SDS011;45672;51.612;5.536;2023-07-13T14:03:33;5.60;;;2.40;;
59786;SDS011;45672;51.612;5.536;2023-07-13T14:05:58;6.07;;;2.13;;
59786;SDS011;45672;51.612;5.536;2023-07-13T14:08:24;3.22;;;2.50;;
59786;SDS011;45672;51.612;5.536;2023-07-13T14:10:51;3.63;;;2.03;;
59786;SDS011;45672;51.612;5.536;2023-07-13T14:13:20;5.32;;;2.40;;
59786;SDS011;45672;51.612;5.536;2023-07-13T14:15:51;6.70;;;2.42;;
59786;SDS011;45672;51.612;5.536;2023-07-13T14:18:17;3.03;;;2.10;;
59786;SDS011;45672;51.612;5.536;2023-07-13T14:20:46;3.78;;;2.10;;
59786;SDS011;45672;51.612;5.536;2023-07-13T14:23:13;4.38;;;2.25;;
59786;SDS011;45672;51.612;5.536;2023-07-13T14:25:40;3.97;;;2.10;;
59786;SDS011;45672;51.612;5.536;2023-07-13T14:28:26;2.85;;;2.20;;
59786;SDS011;45672;51.612;5.536;2023-07-13T14:30:52;2.28;;;1.98;;
59786;SDS011;45672;51.612;5.536;2023-07-13T14:33:19;2.38;;;1.75;;
59786;SDS011;45672;51.612;5.536;2023-07-13T14:35:45;2.90;;;1.95;;
59786;SDS011;45672;51.612;5.536;2023-07-13T14:38:13;5.07;;;2.10;;
59786;SDS011;45672;51.612;5.536;2023-07-13T14:40:43;2.83;;;1.83;;
59786;SDS011;45672;51.612;5.536;2023-07-13T14:43:11;2.33;;;2.13;;
59786;SDS011;45672;51.612;5.536;2023-07-13T14:45:42;3.03;;;2.08;;
59786;SDS011;45672;51.612;5.536;2023-07-13T14:48:17;2.70;;;2.10;;
59786;SDS011;45672;51.612;5.536;2023-07-13T14:50:47;4.75;;;2.20;;
59786;SDS011;45672;51.612;5.536;2023-07-13T14:53:15;3.22;;;2.08;;
59786;SDS011;45672;51.612;5.536;2023-07-13T14:55:41;2.92;;;2.00;;
59786;SDS011;45672;51.612;5.536;2023-07-13T14:58:07;4.82;;;2.45;;
59786;SDS011;45672;51.612;5.536;2023-07-13T15:00:33;6.35;;;2.50;;
59786;SDS011;45672;51.612;5.536;2023-07-13T15:02:59;5.38;;;2.20;;
59786;SDS011;45672;51.612;5.536;2023-07-13T15:05:28;3.75;;;2.00;;
59786;SDS011;45672;51.612;5.536;2023-07-13T15:07:57;5.05;;;2.17;;
59786;SDS011;45672;51.612;5.536;2023-07-13T15:10:32;3.88;;;2.17;;
59786;SDS011;45672;51.612;5.536;2023-07-13T15:12:59;4.20;;;1.90;;
59786;SDS011;45672;51.612;5.536;2023-07-13T15:15:27;2.60;;;1.70;;
59786;SDS011;45672;51.612;5.536;2023-07-13T15:17:54;5.15;;;2.00;;
59786;SDS011;45672;51.612;5.536;2023-07-13T15:22:50;6.40;;;2.00;;
59786;SDS011;45672;51.612;5.536;2023-07-13T15:25:25;4.68;;;2.10;;
59786;SDS011;45672;51.612;5.536;2023-07-13T15:27:53;4.05;;;2.17;;
59786;SDS011;45672;51.612;5.536;2023-07-13T15:30:21;6.95;;;2.17;;
59786;SDS011;45672;51.612;5.536;2023-07-13T15:32:47;3.03;;;2.30;;
59786;SDS011;45672;51.612;5.536;2023-07-13T15:35:20;3.00;;;2.10;;